Time;durP1;ratioP1;P1;durP2;ratioP2;P2;SDS_P1;SDS_P2;PMS_P1;PMS_P2;Temp;Humidity;BMP_temperature;BMP_pressure;BME280_temperature;BME280_humidity;BME280_pressure;Samples;Min_cycle;Max_cycle;Signal;HPM_P1;HPM_P2
2022/12/02 00:02:13;;;;;;;24.58;15.10;;;6.10;99.90;;;;;;5032471;28;20092;-87
2022/12/02 00:04:39;;;;;;;20.45;12.88;;;6.00;99.90;;;;;;5032688;28;20505;-87
2022/12/02 00:07:11;;;;;;;19.95;12.30;;;6.00;99.90;;;;;;5032693;28;20049;-87
2022/12/02 00:09:41;;;;;;;25.63;16.48;;;5.90;99.90;;;;;;5031529;28;20091;-87
2022/12/02 00:12:26;;;;;;;20.98;13.38;;;6.20;99.90;;;;;;5031413;28;20044;-87
2022/12/02 00:14:58;;;;;;;23.02;16.20;;;6.00;99.90;;;;;;5030746;28;20049;-87
2022/12/02 00:17:24;;;;;;;20.70;13.43;;;5.90;99.90;;;;;;5031339;28;20112;-87
2022/12/02 00:19:51;;;;;;;24.88;15.57;;;5.90;99.90;;;;;;5031502;28;20057;-86
2022/12/02 00:22:16;;;;;;;20.98;13.95;;;5.80;99.90;;;;;;5014957;28;20029;-88
2022/12/02 00:24:42;;;;;;;20.35;13.05;;;5.90;99.90;;;;;;5032393;28;20059;-87
2022/12/02 00:27:08;;;;;;;20.77;13.07;;;6.00;99.90;;;;;;5030308;28;20405;-88
2022/12/02 00:29:33;;;;;;;22.15;14.07;;;5.90;99.90;;;;;;5032367;28;20152;-88
2022/12/02 00:31:59;;;;;;;20.17;13.00;;;5.90;99.90;;;;;;5032174;28;20095;-87
2022/12/02 00:34:24;;;;;;;21.20;13.52;;;5.90;99.90;;;;;;5033466;28;20041;-87
2022/12/02 00:36:50;;;;;;;21.67;13.70;;;5.80;99.90;;;;;;5031114;28;20053;-87
2022/12/02 00:39:16;;;;;;;20.27;13.70;;;5.90;99.90;;;;;;5030996;28;20191;-87
2022/12/02 00:41:42;;;;;;;19.42;13.45;;;5.90;99.90;;;;;;5030702;28;20029;-87
2022/12/02 00:46:51;;;;;;;21.38;14.02;;;5.80;99.90;;;;;;5032065;28;20033;-87
2022/12/02 00:49:17;;;;;;;24.10;17.35;;;5.80;99.90;;;;;;5032004;28;20041;-87
2022/12/02 00:51:44;;;;;;;22.58;14.10;;;5.90;99.90;;;;;;5030519;28;20053;-86
2022/12/02 00:54:10;;;;;;;19.73;13.90;;;5.80;99.90;;;;;;5032682;28;20478;-87
2022/12/02 00:56:36;;;;;;;22.48;14.05;;;5.90;99.90;;;;;;5030176;28;20481;-87
2022/12/02 00:59:03;;;;;;;21.95;13.75;;;5.80;99.90;;;;;;5030477;28;20120;-87
2022/12/02 01:01:29;;;;;;;21.60;13.88;;;6.00;99.90;;;;;;5032016;28;20116;-87
2022/12/02 01:03:55;;;;;;;22.27;14.05;;;5.90;99.90;;;;;;5032259;28;20092;-87
2022/12/02 01:06:21;;;;;;;23.75;13.88;;;5.80;99.90;;;;;;5030659;28;20492;-87
2022/12/02 01:08:47;;;;;;;21.58;14.27;;;5.90;99.90;;;;;;5032223;28;20030;-87
2022/12/02 01:11:12;;;;;;;22.58;14.98;;;6.00;99.90;;;;;;5031619;28;20160;-87
2022/12/02 01:13:38;;;;;;;24.58;15.95;;;6.00;99.90;;;;;;5029755;28;20124;-87
2022/12/02 01:16:04;;;;;;;21.02;13.57;;;5.90;99.90;;;;;;5030578;28;20033;-87
2022/12/02 01:18:30;;;;;;;23.27;14.32;;;5.90;99.90;;;;;;5031492;28;20521;-87
2022/12/02 01:20:55;;;;;;;26.60;18.48;;;5.80;99.90;;;;;;5032030;28;20061;-87
2022/12/02 01:23:21;;;;;;;21.65;14.40;;;5.70;99.90;;;;;;5031269;28;20390;-87
2022/12/02 01:25:47;;;;;;;22.83;14.15;;;5.70;99.90;;;;;;5031300;28;20114;-87
2022/12/02 01:28:14;;;;;;;21.75;14.02;;;5.60;99.90;;;;;;5030946;28;20033;-87
2022/12/02 01:30:39;;;;;;;23.65;14.82;;;5.70;99.90;;;;;;5031472;28;20440;-87
2022/12/02 01:33:05;;;;;;;20.90;13.77;;;5.70;99.90;;;;;;5039102;28;20025;-87
2022/12/02 01:35:31;;;;;;;23.20;14.57;;;6.00;99.90;;;;;;5051635;28;20021;-87
2022/12/02 01:37:56;;;;;;;22.58;14.55;;;5.80;99.90;;;;;;5034754;28;20029;-87
2022/12/02 01:40:22;;;;;;;21.63;14.25;;;5.90;99.90;;;;;;5030741;28;20053;-87
2022/12/02 01:42:48;;;;;;;21.00;14.13;;;6.00;99.90;;;;;;5030293;28;20026;-87
2022/12/02 01:45:14;;;;;;;25.63;15.00;;;6.00;99.90;;;;;;5034275;28;20041;-87
2022/12/02 01:47:40;;;;;;;23.35;14.32;;;6.00;99.90;;;;;;5035433;28;20112;-87
2022/12/02 01:50:09;;;;;;;22.90;14.50;;;5.90;99.90;;;;;;5034344;28;20108;-87
2022/12/02 01:52:35;;;;;;;22.45;14.15;;;5.90;99.90;;;;;;5034140;28;20056;-86
2022/12/02 01:55:00;;;;;;;25.60;15.85;;;5.90;99.90;;;;;;5033306;28;20402;-86
2022/12/02 01:57:28;;;;;;;22.80;14.88;;;5.80;99.90;;;;;;5034575;28;20037;-87
2022/12/02 01:59:53;;;;;;;22.35;14.65;;;5.80;99.90;;;;;;5034787;28;20104;-87
2022/12/02 02:02:37;;;;;;;22.58;14.10;;;5.80;99.90;;;;;;5034731;28;20113;-87
2022/12/02 02:05:04;;;;;;;24.92;16.02;;;5.80;99.90;;;;;;5034824;28;20112;-87
2022/12/02 02:07:31;;;;;;;26.02;15.57;;;6.10;99.90;;;;;;5032920;28;20029;-87
2022/12/02 02:09:57;;;;;;;25.30;15.35;;;5.80;99.90;;;;;;5032878;28;20040;-87
2022/12/02 02:12:23;;;;;;;27.33;15.98;;;5.80;99.90;;;;;;5033113;28;20037;-87
2022/12/02 02:14:49;;;;;;;26.45;15.65;;;5.80;99.90;;;;;;5035022;28;20029;-87
2022/12/02 02:17:15;;;;;;;27.35;17.20;;;5.70;99.90;;;;;;5033350;28;20071;-86
2022/12/02 02:19:40;;;;;;;25.02;15.38;;;5.60;99.90;;;;;;5034177;28;20371;-87
2022/12/02 02:22:23;;;;;;;25.80;15.48;;;5.70;99.90;;;;;;5034577;28;20033;-87
2022/12/02 02:24:49;;;;;;;26.10;16.85;;;5.70;99.90;;;;;;5034091;28;20045;-87
2022/12/02 02:27:16;;;;;;;23.13;15.32;;;5.70;99.90;;;;;;5032414;28;20075;-87
2022/12/02 02:29:42;;;;;;;26.38;16.77;;;5.80;99.90;;;;;;5034230;28;20033;-87
2022/12/02 02:32:08;;;;;;;25.73;15.60;;;5.70;99.90;;;;;;5034198;28;20025;-87
2022/12/02 02:34:34;;;;;;;26.80;16.88;;;5.70;99.90;;;;;;5054068;28;20040;-87
2022/12/02 02:36:59;;;;;;;28.77;17.42;;;5.70;99.90;;;;;;5039680;28;20037;-87
2022/12/02 02:39:26;;;;;;;25.95;16.17;;;5.80;99.90;;;;;;5033378;28;20028;-87
2022/12/02 02:41:53;;;;;;;26.60;16.02;;;5.70;99.90;;;;;;5033225;28;20100;-87
2022/12/02 02:44:19;;;;;;;24.80;16.25;;;5.70;99.90;;;;;;5032982;28;20041;-87
2022/12/02 02:46:45;;;;;;;26.15;15.75;;;5.80;99.90;;;;;;5032322;28;20020;-87
2022/12/02 02:49:11;;;;;;;25.33;15.80;;;5.70;99.90;;;;;;5033440;28;20128;-86
2022/12/02 02:51:36;;;;;;;25.65;16.25;;;5.60;99.90;;;;;;5032346;28;20371;-87
2022/12/02 02:54:02;;;;;;;29.55;17.30;;;5.70;99.90;;;;;;5032323;28;20033;-87
2022/12/02 02:56:28;;;;;;;29.98;15.95;;;5.70;99.90;;;;;;5032467;28;20025;-87
2022/12/02 02:58:53;;;;;;;29.30;16.58;;;5.80;99.90;;;;;;5032065;28;20084;-87
2022/12/02 03:01:26;;;;;;;29.77;17.45;;;5.70;99.90;;;;;;5033746;28;20478;-87
2022/12/02 03:03:59;;;;;;;27.40;16.83;;;5.70;99.90;;;;;;5033509;28;20123;-87
2022/12/02 03:06:27;;;;;;;30.30;17.58;;;5.70;99.90;;;;;;5033821;28;20025;-87
2022/12/02 03:08:53;;;;;;;27.05;16.95;;;5.80;99.90;;;;;;5033450;28;20026;-87
2022/12/02 03:11:19;;;;;;;29.13;17.13;;;5.70;99.90;;;;;;5033111;28;20038;-87
2022/12/02 03:13:49;;;;;;;28.60;16.38;;;5.80;99.90;;;;;;5033168;28;20018;-86
2022/12/02 03:16:16;;;;;;;28.10;16.75;;;5.70;99.90;;;;;;5032341;28;20033;-87
2022/12/02 03:18:45;;;;;;;26.85;17.10;;;5.70;99.90;;;;;;5033060;28;20029;-87
2022/12/02 03:21:12;;;;;;;27.80;17.38;;;5.80;99.90;;;;;;5031457;28;20121;-87
2022/12/02 03:23:38;;;;;;;31.80;18.10;;;5.80;99.90;;;;;;5016272;28;20045;-87
2022/12/02 03:26:04;;;;;;;29.25;17.73;;;5.80;99.90;;;;;;5033005;28;20124;-87
2022/12/02 03:28:31;;;;;;;29.42;16.98;;;5.80;99.90;;;;;;5033248;28;20400;-87
2022/12/02 03:30:57;;;;;;;27.02;17.15;;;5.80;99.90;;;;;;5032775;28;20414;-87
2022/12/02 03:33:23;;;;;;;25.38;16.15;;;5.70;99.90;;;;;;5036499;28;20027;-87
2022/12/02 03:35:49;;;;;;;27.73;17.95;;;5.80;99.90;;;;;;5032897;28;20047;-87
2022/12/02 03:38:15;;;;;;;29.25;17.77;;;5.80;99.90;;;;;;5033183;28;20029;-86
2022/12/02 03:40:41;;;;;;;28.98;17.00;;;5.90;99.90;;;;;;5033572;28;20021;-87
2022/12/02 03:43:06;;;;;;;29.17;17.45;;;5.90;99.90;;;;;;5031221;28;20029;-87
2022/12/02 03:45:34;;;;;;;28.38;17.35;;;5.90;99.90;;;;;;5032916;28;20030;-87
2022/12/02 03:48:00;;;;;;;30.27;17.33;;;5.80;99.90;;;;;;5032682;28;20030;-87
2022/12/02 03:50:26;;;;;;;28.35;17.48;;;5.80;99.90;;;;;;5032747;28;20496;-87
2022/12/02 03:52:53;;;;;;;27.85;17.33;;;5.70;99.90;;;;;;5032751;28;20018;-87
2022/12/02 03:55:19;;;;;;;26.95;16.85;;;5.80;99.90;;;;;;5033075;28;20029;-87
2022/12/02 03:57:44;;;;;;;27.75;16.63;;;5.80;99.90;;;;;;5031336;28;20029;-86
2022/12/02 04:00:11;;;;;;;27.75;17.30;;;5.70;99.90;;;;;;5031495;28;20478;-87
2022/12/02 04:02:37;;;;;;;30.27;18.23;;;5.70;99.90;;;;;;5032602;28;20029;-87
2022/12/02 04:05:03;;;;;;;28.15;17.25;;;5.60;99.90;;;;;;5032525;28;20038;-86
2022/12/02 04:07:29;;;;;;;30.73;18.00;;;5.70;99.90;;;;;;5030481;28;20389;-87
2022/12/02 04:09:54;;;;;;;30.58;18.50;;;5.70;99.90;;;;;;5032537;28;20502;-87
2022/12/02 04:12:20;;;;;;;28.75;16.70;;;5.80;99.90;;;;;;5032770;28;20025;-87
2022/12/02 04:14:46;;;;;;;32.47;18.38;;;5.70;99.90;;;;;;5032008;28;20030;-86
2022/12/02 04:17:11;;;;;;;29.98;17.27;;;5.70;99.90;;;;;;5031157;28;20481;-86
2022/12/02 04:19:37;;;;;;;30.52;18.95;;;5.60;99.90;;;;;;5032250;28;20544;-86
2022/12/02 04:22:02;;;;;;;29.73;17.83;;;5.60;99.90;;;;;;5030794;28;20041;-86
2022/12/02 04:24:28;;;;;;;26.60;17.55;;;5.70;99.90;;;;;;5031656;28;20148;-87
2022/12/02 04:26:54;;;;;;;32.28;17.52;;;5.70;99.90;;;;;;5032689;28;20036;-86
2022/12/02 04:29:20;;;;;;;31.30;18.73;;;5.70;99.90;;;;;;5032209;28;20037;-86
2022/12/02 04:31:45;;;;;;;29.50;17.50;;;5.60;99.90;;;;;;5032435;28;20018;-86
2022/12/02 04:34:11;;;;;;;32.33;18.73;;;5.90;99.90;;;;;;5048709;28;20033;-86
2022/12/02 04:36:37;;;;;;;30.20;17.95;;;5.70;99.90;;;;;;5050483;28;20044;-87
2022/12/02 04:39:03;;;;;;;29.85;17.85;;;5.70;99.90;;;;;;5050936;28;20106;-86
2022/12/02 04:41:28;;;;;;;31.40;17.80;;;5.70;99.90;;;;;;5048535;28;20013;-87
2022/12/02 04:43:54;;;;;;;28.70;17.42;;;5.70;99.90;;;;;;5031976;28;20048;-86
2022/12/02 04:46:20;;;;;;;31.05;18.75;;;5.70;99.90;;;;;;5031869;28;20104;-87
2022/12/02 04:48:46;;;;;;;29.60;17.67;;;5.70;99.90;;;;;;5032362;28;20033;-86
2022/12/02 04:51:11;;;;;;;31.08;18.33;;;5.70;99.90;;;;;;5032895;28;20485;-87
2022/12/02 04:53:37;;;;;;;28.20;17.67;;;5.80;99.90;;;;;;5032094;28;20034;-83
2022/12/02 04:56:03;;;;;;;30.83;18.23;;;5.80;99.90;;;;;;5031664;28;20033;-82
2022/12/02 04:58:28;;;;;;;30.85;18.67;;;5.90;99.90;;;;;;5031961;28;20059;-83
2022/12/02 05:00:54;;;;;;;27.50;17.15;;;5.80;99.90;;;;;;5031841;28;20498;-82
2022/12/02 05:03:20;;;;;;;27.77;17.20;;;5.80;99.90;;;;;;5031855;28;20041;-83
2022/12/02 05:05:45;;;;;;;30.58;18.55;;;5.90;99.90;;;;;;5031056;28;20079;-82
2022/12/02 05:08:11;;;;;;;28.02;17.20;;;5.80;99.90;;;;;;5032067;28;20124;-82
2022/12/02 05:10:36;;;;;;;28.95;17.48;;;5.80;99.90;;;;;;5031378;28;20517;-83
2022/12/02 05:13:02;;;;;;;28.95;17.83;;;5.80;99.90;;;;;;5031493;28;20037;-83
2022/12/02 05:15:28;;;;;;;32.13;17.70;;;5.80;99.90;;;;;;5031146;28;20060;-83
2022/12/02 05:17:53;;;;;;;31.67;17.80;;;5.80;99.90;;;;;;5032354;28;20088;-82
2022/12/02 05:20:19;;;;;;;32.97;18.98;;;5.80;99.90;;;;;;5034234;28;20030;-82
2022/12/02 05:22:44;;;;;;;29.95;17.48;;;5.80;99.90;;;;;;5035609;28;20053;-82
2022/12/02 05:25:10;;;;;;;29.65;17.75;;;5.90;99.90;;;;;;5034553;28;20050;-82
2022/12/02 05:27:36;;;;;;;33.17;18.35;;;5.70;99.90;;;;;;5035345;28;20025;-82
2022/12/02 05:30:03;;;;;;;31.55;18.10;;;5.70;99.90;;;;;;5034524;28;20095;-83
2022/12/02 05:32:29;;;;;;;30.85;18.25;;;5.80;99.90;;;;;;5037546;28;20493;-83
2022/12/02 05:34:54;;;;;;;28.42;17.02;;;5.70;99.90;;;;;;5054557;28;20032;-83
2022/12/02 05:37:20;;;;;;;30.20;18.17;;;5.70;99.90;;;;;;5035146;28;20033;-83
2022/12/02 05:39:45;;;;;;;32.50;17.40;;;5.70;99.90;;;;;;5035284;28;20039;-82
2022/12/02 05:42:13;;;;;;;32.38;17.92;;;5.70;99.90;;;;;;5035178;28;20482;-83
2022/12/02 05:44:41;;;;;;;31.10;17.98;;;5.70;99.90;;;;;;5034635;28;20037;-82
2022/12/02 05:47:12;;;;;;;28.95;17.77;;;5.70;99.90;;;;;;5034863;28;20032;-82
2022/12/02 05:49:39;;;;;;;33.72;18.23;;;5.70;99.90;;;;;;5014566;28;20026;-83
2022/12/02 05:52:34;;;;;;;29.50;18.33;;;5.70;99.90;;;;;;5014256;28;20022;-82
2022/12/02 05:55:11;;;;;;;31.55;18.02;;;5.70;99.90;;;;;;5014732;28;20049;-83
2022/12/02 05:57:37;;;;;;;31.50;18.05;;;5.70;99.90;;;;;;5015182;28;20486;-82
2022/12/02 06:00:08;;;;;;;32.78;19.13;;;5.70;99.90;;;;;;5014968;28;20037;-82
2022/12/02 06:02:46;;;;;;;32.88;19.30;;;5.80;99.90;;;;;;5014663;28;20025;-83
2022/12/02 06:05:19;;;;;;;29.17;18.58;;;5.70;99.90;;;;;;5014778;28;20049;-82
2022/12/02 06:07:45;;;;;;;27.80;17.65;;;5.70;99.90;;;;;;5015109;28;20026;-82
2022/12/02 06:10:31;;;;;;;37.92;19.55;;;5.70;99.90;;;;;;5033257;28;20053;-82
2022/12/02 06:13:09;;;;;;;32.67;18.85;;;5.80;99.90;;;;;;5034254;28;20030;-82
2022/12/02 06:15:37;;;;;;;30.10;17.88;;;5.70;99.90;;;;;;5034018;28;20025;-81
2022/12/02 06:18:14;;;;;;;31.08;19.25;;;5.70;99.90;;;;;;5033400;28;20029;-82
2022/12/02 06:20:40;;;;;;;34.03;19.15;;;5.70;99.90;;;;;;5033730;28;20021;-82
2022/12/02 06:23:11;;;;;;;34.10;20.52;;;5.70;99.90;;;;;;5034006;28;20026;-83
2022/12/02 06:25:37;;;;;;;31.50;19.30;;;5.70;99.90;;;;;;5033072;28;20053;-82
2022/12/02 06:28:25;;;;;;;33.20;19.60;;;5.70;99.90;;;;;;5034041;28;20026;-83
2022/12/02 06:30:58;;;;;;;32.58;18.85;;;5.60;99.90;;;;;;5034191;28;20029;-82
2022/12/02 06:33:27;;;;;;;30.80;18.25;;;5.60;99.90;;;;;;5043328;28;20021;-83
2022/12/02 06:35:54;;;;;;;31.70;19.50;;;5.60;99.90;;;;;;5053724;28;20032;-83
2022/12/02 06:38:33;;;;;;;30.75;19.33;;;5.90;99.90;;;;;;5053895;28;20025;-83
2022/12/02 06:41:09;;;;;;;39.53;19.15;;;5.60;99.90;;;;;;5052013;28;20033;-82
2022/12/02 06:43:35;;;;;;;34.03;19.27;;;5.60;99.90;;;;;;5034048;28;20140;-82
2022/12/02 06:46:01;;;;;;;32.88;19.20;;;5.70;99.90;;;;;;5034246;28;20105;-82
2022/12/02 06:48:39;;;;;;;34.63;20.02;;;5.70;99.90;;;;;;5033217;28;20026;-82
2022/12/02 06:51:20;;;;;;;35.08;19.77;;;5.80;99.90;;;;;;5033972;28;20088;-82
2022/12/02 06:53:47;;;;;;;33.20;20.35;;;5.70;99.90;;;;;;5033999;28;20547;-82
2022/12/02 06:56:27;;;;;;;37.30;20.40;;;5.70;99.90;;;;;;5033691;28;20026;-82
2022/12/02 06:58:52;;;;;;;35.55;20.75;;;5.80;99.90;;;;;;5033855;28;20032;-82
2022/12/02 07:01:23;;;;;;;37.08;22.20;;;5.80;99.90;;;;;;5033117;28;20025;-82
2022/12/02 07:04:02;;;;;;;36.85;22.33;;;5.70;99.90;;;;;;5033368;28;20037;-83
2022/12/02 07:06:29;;;;;;;53.78;28.10;;;5.70;99.90;;;;;;5033420;28;20049;-83
2022/12/02 07:09:04;;;;;;;41.85;23.00;;;6.10;99.90;;;;;;5016114;28;20061;-82
2022/12/02 07:11:49;;;;;;;50.47;27.63;;;5.80;99.90;;;;;;5013992;28;20026;-82
2022/12/02 07:14:21;;;;;;;46.97;26.52;;;5.70;99.90;;;;;;5015987;28;20050;-82
2022/12/02 07:16:48;;;;;;;134.82;64.35;;;5.70;99.90;;;;;;5032775;28;20443;-82
2022/12/02 07:19:31;;;;;;;81.25;40.00;;;5.90;99.90;;;;;;5031646;28;20620;-83
2022/12/02 07:21:57;;;;;;;33.00;19.55;;;6.10;99.90;;;;;;5032372;28;20100;-82
2022/12/02 07:24:24;;;;;;;32.95;19.40;;;5.90;99.90;;;;;;5032609;28;20479;-83
2022/12/02 07:26:50;;;;;;;45.38;23.08;;;5.90;99.90;;;;;;5033233;28;20112;-83
2022/12/02 07:29:30;;;;;;;55.80;29.27;;;6.00;99.90;;;;;;5032912;28;20033;-83
2022/12/02 07:31:55;;;;;;;523.83;270.80;;;6.00;99.90;;;;;;5032648;28;20117;-83
2022/12/02 07:34:21;;;;;;;410.92;205.98;;;6.10;99.90;;;;;;5050451;28;20117;-83
2022/12/02 07:36:47;;;;;;;54.90;29.92;;;6.10;99.90;;;;;;5053072;28;20028;-83
2022/12/02 07:39:12;;;;;;;93.43;48.65;;;6.10;99.90;;;;;;5052866;28;20389;-83
2022/12/02 07:41:38;;;;;;;147.10;72.50;;;6.10;99.90;;;;;;5052131;28;20067;-83
2022/12/02 07:44:04;;;;;;;69.70;38.15;;;6.20;99.90;;;;;;5053130;28;20092;-83
2022/12/02 07:46:30;;;;;;;380.33;163.40;;;6.20;99.90;;;;;;5052197;28;20024;-83
2022/12/02 07:48:56;;;;;;;46.58;26.88;;;6.20;99.90;;;;;;5052415;28;20033;-83
2022/12/02 07:51:22;;;;;;;34.50;20.95;;;6.30;99.90;;;;;;5052760;28;20039;-83
2022/12/02 07:53:47;;;;;;;57.88;32.28;;;6.40;99.90;;;;;;5052585;28;20029;-83
2022/12/02 07:56:13;;;;;;;49.38;29.30;;;6.30;99.90;;;;;;5052942;28;20044;-83
2022/12/02 07:58:39;;;;;;;48.53;29.05;;;6.30;99.90;;;;;;5052026;28;20490;-83
2022/12/02 08:01:04;;;;;;;50.25;26.75;;;6.30;99.90;;;;;;5043131;28;20041;-81
2022/12/02 08:03:30;;;;;;;37.45;21.65;;;6.30;99.90;;;;;;5032400;28;20029;-81
2022/12/02 08:05:55;;;;;;;36.63;20.92;;;6.30;99.90;;;;;;5032448;28;20055;-81
2022/12/02 08:08:21;;;;;;;47.00;25.38;;;6.30;99.90;;;;;;5032283;28;20025;-81
2022/12/02 08:10:47;;;;;;;47.58;27.25;;;6.40;99.90;;;;;;5032475;28;20393;-83
2022/12/02 08:13:12;;;;;;;98.97;53.25;;;6.30;99.90;;;;;;5031110;28;20021;-84
2022/12/02 08:15:38;;;;;;;35.30;20.90;;;6.30;99.90;;;;;;5032404;28;20032;-83
2022/12/02 08:18:03;;;;;;;50.60;28.75;;;6.30;99.90;;;;;;5031896;28;20029;-83
2022/12/02 08:20:30;;;;;;;110.45;59.67;;;6.30;99.90;;;;;;5030672;28;20013;-83
2022/12/02 08:22:56;;;;;;;51.30;29.92;;;6.10;99.90;;;;;;5026669;28;20084;-82
2022/12/02 08:25:22;;;;;;;35.45;21.00;;;5.90;99.90;;;;;;5015405;28;20050;-83
2022/12/02 08:27:47;;;;;;;41.47;23.50;;;6.00;99.90;;;;;;5031668;28;20029;-85
2022/12/02 08:30:14;;;;;;;36.03;21.08;;;5.90;99.90;;;;;;5031744;28;20108;-83
2022/12/02 08:32:40;;;;;;;179.25;70.10;;;6.00;99.90;;;;;;5035487;28;20021;-82
2022/12/02 08:35:06;;;;;;;44.65;24.55;;;5.90;99.90;;;;;;5046125;28;20543;-84
2022/12/02 08:37:31;;;;;;;77.85;37.55;;;5.90;99.90;;;;;;5032265;28;20396;-83
2022/12/02 08:39:57;;;;;;;60.90;30.83;;;5.80;99.90;;;;;;5031095;28;20026;-83
2022/12/02 08:42:22;;;;;;;41.53;22.75;;;5.80;99.90;;;;;;5031665;28;20393;-83
2022/12/02 08:44:48;;;;;;;185.95;103.50;;;5.80;99.90;;;;;;5031868;28;20033;-83
2022/12/02 08:47:14;;;;;;;70.70;43.85;;;5.80;99.90;;;;;;5032464;28;20037;-82
2022/12/02 08:49:39;;;;;;;39.50;23.58;;;5.80;99.90;;;;;;5031871;28;20031;-83
2022/12/02 08:52:05;;;;;;;36.72;21.38;;;5.80;99.90;;;;;;5033134;28;20100;-83
2022/12/02 08:54:30;;;;;;;36.15;21.58;;;5.90;99.90;;;;;;5036666;28;20497;-83
2022/12/02 08:56:59;;;;;;;117.43;57.72;;;6.00;99.90;;;;;;5035599;28;20032;-83
2022/12/02 08:59:25;;;;;;;39.58;23.00;;;6.00;99.90;;;;;;5036431;28;20021;-83
2022/12/02 09:01:50;;;;;;;68.75;36.63;;;6.00;99.90;;;;;;5035811;28;20029;-83
2022/12/02 09:04:16;;;;;;;76.65;40.88;;;6.10;99.90;;;;;;5035819;28;20040;-83
2022/12/02 09:06:42;;;;;;;67.05;35.47;;;6.00;99.90;;;;;;5035800;28;20048;-83
2022/12/02 09:09:07;;;;;;;36.30;19.77;;;6.10;99.90;;;;;;5035421;28;20112;-83
2022/12/02 09:11:33;;;;;;;35.50;21.02;;;6.20;99.90;;;;;;5034490;28;20075;-83
2022/12/02 09:13:58;;;;;;;58.78;27.23;;;6.10;99.90;;;;;;5035596;28;20025;-83
2022/12/02 09:16:24;;;;;;;143.70;84.82;;;6.10;99.90;;;;;;5035536;28;20029;-83
2022/12/02 09:18:50;;;;;;;51.35;30.30;;;6.20;99.90;;;;;;5035665;28;20099;-83
2022/12/02 09:21:15;;;;;;;96.00;55.00;;;6.10;99.90;;;;;;5035833;28;20382;-83
2022/12/02 09:23:41;;;;;;;68.05;35.42;;;6.10;99.90;;;;;;5035433;28;20479;-83
2022/12/02 09:26:06;;;;;;;41.00;24.33;;;6.20;99.90;;;;;;5033437;28;20054;-83
2022/12/02 09:28:32;;;;;;;50.83;28.83;;;6.40;99.90;;;;;;5036264;28;20024;-83
2022/12/02 09:30:58;;;;;;;41.25;24.33;;;6.20;99.90;;;;;;5035145;28;20048;-83
2022/12/02 09:33:23;;;;;;;57.88;35.20;;;6.20;99.90;;;;;;5045189;28;20029;-83
2022/12/02 09:35:50;;;;;;;72.60;44.42;;;6.30;99.90;;;;;;5035299;28;20025;-83
2022/12/02 09:38:15;;;;;;;39.13;22.48;;;6.40;99.90;;;;;;5034848;28;20029;-83
2022/12/02 09:40:41;;;;;;;60.92;33.38;;;6.90;99.90;;;;;;5035070;28;20040;-83
2022/12/02 09:43:07;;;;;;;35.58;20.48;;;6.60;99.90;;;;;;5034977;28;20079;-83
2022/12/02 09:45:33;;;;;;;34.20;20.20;;;6.50;99.90;;;;;;5033905;28;20216;-83
2022/12/02 09:47:59;;;;;;;46.60;25.92;;;6.60;99.90;;;;;;5035288;28;20032;-83
2022/12/02 09:50:25;;;;;;;69.30;37.40;;;6.40;99.90;;;;;;5034943;28;20033;-83
2022/12/02 09:52:52;;;;;;;34.75;20.33;;;6.50;99.90;;;;;;5034177;28;20413;-83
2022/12/02 09:55:19;;;;;;;39.28;23.38;;;6.50;99.90;;;;;;5034514;28;20040;-83
2022/12/02 09:57:45;;;;;;;111.85;58.78;;;6.50;99.90;;;;;;5034838;28;20026;-83
2022/12/02 10:00:17;;;;;;;35.53;20.52;;;6.60;99.90;;;;;;5034881;28;20036;-83
2022/12/02 10:02:48;;;;;;;33.17;19.80;;;6.60;99.90;;;;;;5034770;28;20113;-83
2022/12/02 10:05:17;;;;;;;35.72;20.52;;;6.60;99.90;;;;;;5033921;28;20029;-83
2022/12/02 10:07:44;;;;;;;35.60;19.75;;;6.50;99.90;;;;;;5034505;28;20470;-83
2022/12/02 10:10:17;;;;;;;36.78;21.45;;;6.80;99.90;;;;;;5034351;28;20025;-83
2022/12/02 10:12:43;;;;;;;34.40;20.55;;;6.50;99.90;;;;;;5034547;28;20082;-83
2022/12/02 10:15:16;;;;;;;33.20;20.27;;;6.50;99.90;;;;;;5034616;28;20021;-83
2022/12/02 10:17:43;;;;;;;32.15;20.45;;;6.60;99.90;;;;;;5034157;28;20108;-83
2022/12/02 10:20:16;;;;;;;33.42;19.30;;;6.70;99.90;;;;;;5035408;28;20018;-83
2022/12/02 10:23:12;;;;;;;37.08;21.70;;;6.90;99.90;;;;;;5034200;28;20040;-83
2022/12/02 10:25:40;;;;;;;34.75;20.45;;;7.00;99.90;;;;;;5034092;28;20477;-83
2022/12/02 10:28:19;;;;;;;49.95;32.15;;;6.90;99.90;;;;;;5034183;28;20489;-83
2022/12/02 10:30:55;;;;;;;35.33;23.10;;;6.90;99.90;;;;;;5034281;28;20021;-84
2022/12/02 10:33:29;;;;;;;34.25;22.58;;;6.80;99.90;;;;;;5043721;28;20067;-83
2022/12/02 10:35:55;;;;;;;34.85;22.05;;;7.00;99.90;;;;;;5052816;28;20431;-83
2022/12/02 10:38:40;;;;;;;30.75;20.35;;;7.60;99.90;;;;;;5053566;28;20489;-83
2022/12/02 10:41:27;;;;;;;31.05;20.33;;;7.20;99.90;;;;;;5036737;28;20021;-83
2022/12/02 10:44:01;;;;;;;40.50;23.75;;;6.90;99.90;;;;;;5033001;28;20144;-84
2022/12/02 10:46:27;;;;;;;34.47;20.83;;;7.00;99.90;;;;;;5034342;28;20025;-82
2022/12/02 10:48:53;;;;;;;33.38;20.80;;;6.90;99.90;;;;;;5033538;28;20025;-84
2022/12/02 10:51:20;;;;;;;35.20;21.38;;;6.80;99.90;;;;;;5032459;28;20495;-86
2022/12/02 10:53:49;;;;;;;37.00;21.65;;;6.80;99.90;;;;;;5032221;28;20439;-87
2022/12/02 10:56:19;;;;;;;37.28;21.17;;;6.80;99.90;;;;;;5015586;28;20440;-90
2022/12/02 10:58:46;;;;;;;36.85;20.73;;;6.70;99.90;;;;;;5033281;28;20596;-90
2022/12/02 11:01:12;;;;;;;35.15;22.30;;;6.70;99.90;;;;;;5033781;28;20090;-87
2022/12/02 11:03:39;;;;;;;37.20;21.95;;;6.70;99.90;;;;;;5035925;28;20036;-88
2022/12/02 11:06:12;;;;;;;37.53;21.33;;;6.70;99.90;;;;;;5033352;28;20037;-90
2022/12/02 11:08:40;;;;;;;36.42;21.27;;;6.60;99.90;;;;;;5031165;28;20518;-90
2022/12/02 11:11:23;;;;;;;33.67;20.63;;;6.70;99.90;;;;;;5033363;28;20025;-90
2022/12/02 11:13:56;;;;;;;34.15;20.63;;;6.90;99.90;;;;;;5029748;28;20428;-88
2022/12/02 11:16:28;;;;;;;36.92;22.13;;;6.70;99.90;;;;;;5031235;28;20028;-89
2022/12/02 11:19:18;;;;;;;34.80;20.92;;;6.70;99.90;;;;;;5033027;28;20048;-89
2022/12/02 11:21:44;;;;;;;33.22;20.20;;;7.10;99.90;;;;;;5025501;28;20508;-89
2022/12/02 11:24:22;;;;;;;36.58;21.73;;;6.60;99.90;;;;;;5033026;28;20506;-88
2022/12/02 11:27:09;;;;;;;38.35;20.98;;;6.70;99.90;;;;;;5033111;28;20037;-89
2022/12/02 11:29:37;;;;;;;34.08;20.13;;;6.70;99.90;;;;;;5032871;28;20430;-90
2022/12/02 11:32:38;;;;;;;37.60;21.95;;;6.70;99.90;;;;;;5031065;28;20401;-90
2022/12/02 11:35:13;;;;;;;34.85;20.42;;;7.00;99.90;;;;;;5013514;28;20037;-89
2022/12/02 11:37:41;;;;;;;37.50;20.60;;;6.70;99.90;;;;;;5019479;28;20156;-89
2022/12/02 11:40:10;;;;;;;34.35;20.23;;;6.70;99.90;;;;;;5032939;28;20033;-89
2022/12/02 11:42:38;;;;;;;34.35;20.45;;;7.10;99.90;;;;;;5032573;28;20043;-87
2022/12/02 11:45:14;;;;;;;36.38;21.27;;;7.20;99.90;;;;;;5033163;28;20053;-91
2022/12/02 11:47:54;;;;;;;47.63;26.00;;;6.90;99.90;;;;;;5031645;28;20037;-90
2022/12/02 11:50:33;;;;;;;33.10;19.98;;;6.90;99.90;;;;;;5033249;28;20040;-95
2022/12/02 11:53:11;;;;;;;34.20;19.35;;;6.90;99.90;;;;;;5034386;28;20512;-95
2022/12/02 11:55:42;;;;;;;33.10;20.88;;;6.60;99.90;;;;;;5016615;28;20034;-92
2022/12/02 11:58:18;;;;;;;33.67;20.33;;;6.60;99.90;;;;;;5033789;28;20025;-90
2022/12/02 12:01:02;;;;;;;35.78;22.35;;;6.60;99.90;;;;;;5033123;28;20047;-89
2022/12/02 12:03:27;;;;;;;88.03;48.40;;;6.60;99.90;;;;;;5032512;28;20037;-89
2022/12/02 12:06:07;;;;;;;57.78;33.85;;;6.80;99.90;;;;;;5033371;28;20030;-88
2022/12/02 12:08:33;;;;;;;30.63;18.52;;;6.70;99.90;;;;;;5033417;28;20504;-89
2022/12/02 12:11:30;;;;;;;31.58;19.23;;;6.70;99.90;;;;;;5033201;28;20021;-88
2022/12/02 12:14:19;;;;;;;39.95;23.35;;;6.60;99.90;;;;;;5031186;28;20037;-89
2022/12/02 12:16:49;;;;;;;35.63;22.65;;;6.70;99.90;;;;;;5030515;28;20477;-89
2022/12/02 12:19:15;;;;;;;35.35;22.45;;;6.80;99.90;;;;;;5032967;28;20509;-89
2022/12/02 12:21:51;;;;;;;38.55;22.55;;;6.60;99.90;;;;;;5032927;28;20045;-89
2022/12/02 12:24:21;;;;;;;35.28;22.13;;;6.70;99.90;;;;;;5033395;28;20114;-89
2022/12/02 12:26:48;;;;;;;44.88;27.25;;;6.60;99.90;;;;;;5033018;28;20500;-89
2022/12/02 12:29:14;;;;;;;36.67;22.77;;;6.60;99.90;;;;;;5033781;28;20032;-89
2022/12/02 12:31:40;;;;;;;34.97;23.50;;;6.60;99.90;;;;;;5032850;28;20025;-89
2022/12/02 12:34:06;;;;;;;33.22;21.70;;;6.50;99.90;;;;;;5049177;28;20036;-89
2022/12/02 12:36:32;;;;;;;33.67;21.27;;;6.80;99.90;;;;;;5052947;28;20028;-89
2022/12/02 12:38:58;;;;;;;34.90;20.65;;;6.30;99.90;;;;;;5053468;28;20084;-89
2022/12/02 12:41:23;;;;;;;36.15;22.13;;;6.30;99.90;;;;;;5053048;28;20094;-90
2022/12/02 12:43:49;;;;;;;37.03;21.73;;;6.30;99.90;;;;;;5052891;28;20112;-89
2022/12/02 12:46:16;;;;;;;34.53;21.42;;;6.40;99.90;;;;;;5053117;28;20032;-89